Flight Track Log - Related Links

Times and Time Zones

All times are in EDT time to prevent confusion due to time zone crossing. See the SWA1707 flight status page for this flight to view local times or setup timezone preferences in your user account.

Time Position Orientation Groundspeed Altitude Reporting Facility
EDT Latitude Longitude Course Direction KTS MPH feet Rate Location/Type
Thu 12:45:43 AM 33.6511 -117.8831 190° South 140 161 1,700  Level Los Angeles Center
Thu 12:46:45 AM 33.6114 -117.8917 190° South 143 165 3,100 1,935 Climbing Los Angeles Center
Thu 12:47:47 AM 33.5531 -117.9050 191° South 197 227 5,700 3,268 Climbing Los Angeles Center
Thu 12:48:48 AM 33.4928 -117.9656 220° Southwest 268 308 9,800 3,707 Climbing Los Angeles Center
Thu 12:49:50 AM 33.4556 -118.0908 250° West 316 364 13,300 3,387 Climbing Los Angeles Center
Thu 12:50:52 AM 33.4253 -118.2183 254° West 378 435 16,800 3,387 Climbing Los Angeles Center
Thu 12:51:54 AM 33.4583 -118.3358 289° West 409 471 20,300 3,194 Climbing Los Angeles Center
Thu 12:52:56 AM 33.5722 -118.3719 345° North 420 483 23,400 2,855 Climbing Los Angeles Center
Thu 12:53:58 AM 33.6947 -118.3911 353° North 445 512 26,200 2,267 Climbing Los Angeles Center
Thu 12:55:11 AM 33.8303 -118.4367 344° North 472 543 28,500 2,400 Climbing Los Angeles Center
Thu 12:56:13 AM 33.9817 -118.5019 340° North 478 550 31,600 2,758 Climbing Los Angeles Center
Thu 12:57:15 AM 34.1061 -118.5572 340° North 476 548 34,200 2,323 Climbing Los Angeles Center
Thu 12:58:17 AM 34.2303 -118.6108 340° North 475 547 36,400 2,098 Climbing Los Angeles Center
Thu 12:59:18 AM 34.3542 -118.6661 340° North 474 545 38,500 1,756 Climbing Los Angeles Center
Thu 01:00:20 AM 34.5000 -118.7311 340° North 467 537 40,000 726 Climbing Los Angeles Center
Thu 01:01:22 AM 34.6203 -118.7836 340° North 461 531 40,000  Level Los Angeles Center
Thu 01:02:23 AM 34.7414 -118.8381 340° North 465 535 40,000  Level Los Angeles Center
Thu 01:03:25 AM 34.8611 -118.8922 340° North 461 531 40,000  Level Los Angeles Center
Thu 01:04:27 AM 34.9761 -118.9425 340° North 459 528 40,000  Level Los Angeles Center
Thu 01:05:29 AM 35.0989 -118.9942 341° North 465 535 40,000  Level Los Angeles Center
Thu 01:06:30 AM 35.2444 -119.0592 340° North 467 537 40,000  Level Los Angeles Center
Thu 01:07:32 AM 35.3664 -119.1142 340° North 468 539 40,000  Level Los Angeles Center
Thu 01:08:33 AM 35.4892 -119.1703 340° North 472 543 40,000  Level Los Angeles Center
Thu 01:09:35 AM 35.6122 -119.2275 339° North 473 544 40,000  Level Los Angeles Center
Thu 01:10:37 AM 35.7358 -119.2833 340° North 475 547 40,000  Level Los Angeles Center
Thu 01:11:39 AM 35.8572 -119.3386 340° North 471 542 40,000  Level Los Angeles Center
Thu 01:12:40 AM 36.0036 -119.4061 340° North 477 549 40,000  Level Oakland Center
Thu 01:13:41 AM 36.1256 -119.4622 340° North 474 545 40,000  Level Oakland Center
Thu 01:14:42 AM 36.2467 -119.5164 340° North 470 541 40,000  Level Oakland Center
Thu 01:15:43 AM 36.3694 -119.5747 339° North 472 543 40,000  Level Oakland Center
Thu 01:16:44 AM 36.4919 -119.6325 339° North 473 544 40,000  Level Oakland Center
Thu 01:17:46 AM 36.6150 -119.6903 339° North 474 545 40,000  Level Oakland Center
Thu 01:18:47 AM 36.7378 -119.7469 340° North 474 545 40,000  Level Oakland Center
Thu 01:19:48 AM 36.8608 -119.8036 340° North 472 543 40,000 -836 Level Oakland Center
Thu 01:20:49 AM 36.9681 -119.8967 325° Northwest 468 539 38,300 -2,902 Descending Oakland Center
Thu 01:21:50 AM 37.0897 -120.0153 322° Northwest 477 549 34,100 -3,639 Descending Oakland Center
Thu 01:22:51 AM 37.1822 -120.1042 323° Northwest 479 551 30,900 -3,246 Descending Oakland Center
Thu 01:23:52 AM 37.3025 -120.2269 321° Northwest 460 529 27,500 -2,976 Descending Oakland Center
Thu 01:24:54 AM 37.3978 -120.3194 322° Northwest 433 498 24,800 -2,049 Descending Oakland Center
Thu 01:25:55 AM 37.4869 -120.4111 321° Northwest 415 478 23,300 -1,230 Descending Oakland Center
Thu 01:26:56 AM 37.5753 -120.4972 322° Northwest 403 464 22,300 -984 Descending Oakland Center
Thu 01:27:57 AM 37.6622 -120.5844 322° Northwest 398 458 21,300 -984 Descending Oakland Center
Thu 01:28:58 AM 37.7483 -120.6717 321° Northwest 395 455 20,300 -984 Descending Oakland Center
Thu 01:29:59 AM 37.8325 -120.7558 322° Northwest 387 445 19,300 -934 Descending Oakland Center
Thu 01:31:00 AM 37.9161 -120.8417 321° Northwest 387 445 18,400 -885 Descending Oakland Center
Thu 01:32:01 AM 37.9989 -120.9253 321° Northwest 380 437 17,500 -984 Descending Oakland Center
Thu 01:33:02 AM 38.0794 -121.0097 320° Northwest 376 433 16,400 -683 Descending Oakland Center
Thu 01:34:04 AM 38.1481 -121.1000 314° West 355 409 16,100 -585 Descending Oakland Center
Thu 01:35:05 AM 38.2194 -121.1881 316° Northwest 355 409 15,200 -1,623 Descending Oakland Center
Thu 01:36:06 AM 38.2894 -121.2750 316° Northwest 350 403 12,800 -2,311 Descending Oakland Center
Thu 01:37:07 AM 38.3592 -121.3622 316° Northwest 349 402 10,500 -1,672 Descending Oakland Center
Thu 01:38:08 AM 38.4239 -121.4422 316° Northwest 307 353 9,400 -1,426 Descending Oakland Center
Thu 01:39:09 AM 38.4914 -121.5264 316° Northwest 288 331 7,600 -1,672 Descending Oakland Center
Thu 01:40:10 AM 38.5472 -121.5983 315° West 284 327 6,000 -1,230 Descending Oakland Center
Thu 01:41:11 AM 38.6022 -121.6669 316° Northwest 278 320 5,100 -787 Descending Oakland Center
Thu 01:42:12 AM 38.6667 -121.6881 346° North 250 288 4,400 -689 Descending Oakland Center
Thu 01:43:13 AM 38.7264 -121.6950 355° North 218 251 3,700 -738 Descending Oakland Center
Thu 01:44:14 AM 38.7778 -121.6903 North 191 220 2,900 -836 Descending Oakland Center
Thu 01:45:15 AM 38.7978 -121.6406 63° Northeast 171 197 2,000 -787 Descending Oakland Center
Thu 01:46:16 AM 38.7719 -121.6011 130° Southeast 155 178 1,300 -683 Descending Oakland Center
Thu 01:47:18 AM 38.7364 -121.5994 178° South 137 158 600 -585 Descending Oakland Center
Thu 01:48:19 AM 38.7014 -121.6017 183° South 127 146 100 -492 Descending Oakland Center

Login

Don't have an account? Register now (free) for customized features, flight alerts, and more!